createdAt,value
2019-03-20T00:00:56.152Z,1026.22
2019-03-20T00:01:56.152Z,1026.21
2019-03-20T00:02:56.162Z,1026.21
2019-03-20T00:03:56.160Z,1026.24
2019-03-20T00:04:56.166Z,1026.29
2019-03-20T00:05:56.172Z,1026.28
2019-03-20T00:06:56.170Z,1026.29
2019-03-20T00:07:56.175Z,1026.34
2019-03-20T00:08:56.183Z,1026.34
2019-03-20T00:09:56.186Z,1026.32
2019-03-20T00:10:56.188Z,1026.35
2019-03-20T00:11:56.197Z,1026.34
2019-03-20T00:12:56.200Z,1026.33
2019-03-20T00:13:56.202Z,1026.33
2019-03-20T00:14:56.201Z,1026.32
2019-03-20T00:15:56.205Z,1026.33
2019-03-20T00:16:56.198Z,1026.35
2019-03-20T00:17:56.215Z,1026.39
2019-03-20T00:18:56.221Z,1026.40
2019-03-20T00:19:56.227Z,1026.39
2019-03-20T00:20:56.227Z,1026.41
2019-03-20T00:21:56.232Z,1026.40
2019-03-20T00:22:56.234Z,1026.41
2019-03-20T00:23:56.242Z,1026.40
2019-03-20T00:24:56.237Z,1026.40
2019-03-20T00:25:56.247Z,1026.42
2019-03-20T00:26:56.247Z,1026.40
2019-03-20T00:27:56.252Z,1026.42
2019-03-20T00:28:56.256Z,1026.41
2019-03-20T00:29:56.261Z,1026.41
2019-03-20T00:30:56.252Z,1026.40
2019-03-20T00:31:56.267Z,1026.39
2019-03-20T00:32:56.271Z,1026.41
2019-03-20T00:33:56.276Z,1026.43
2019-03-20T00:35:00.697Z,1026.40
2019-03-20T00:35:56.281Z,1026.43
2019-03-20T00:36:56.284Z,1026.41
2019-03-20T00:37:56.301Z,1026.46
2019-03-20T00:38:56.291Z,1026.45
2019-03-20T00:39:56.298Z,1026.46
2019-03-20T00:40:56.301Z,1026.42
2019-03-20T00:41:56.303Z,1026.41
2019-03-20T00:42:56.308Z,1026.41
2019-03-20T00:43:56.311Z,1026.41
2019-03-20T00:44:56.322Z,1026.39
2019-03-20T00:45:56.323Z,1026.42
2019-03-20T00:46:56.319Z,1026.40
2019-03-20T00:47:56.326Z,1026.43
2019-03-20T00:48:56.333Z,1026.39
2019-03-20T00:49:58.085Z,1026.43
2019-03-20T00:50:56.340Z,1026.44
2019-03-20T00:51:56.355Z,1026.48
2019-03-20T00:52:56.349Z,1026.44
2019-03-20T00:53:56.353Z,1026.42
2019-03-20T00:54:56.352Z,1026.41
2019-03-20T00:55:56.370Z,1026.41
2019-03-20T00:56:56.365Z,1026.42
2019-03-20T00:57:56.367Z,1026.44
2019-03-20T00:58:56.367Z,1026.46
2019-03-20T00:59:56.377Z,1026.50
2019-03-20T01:00:56.379Z,1026.51
2019-03-20T01:01:56.377Z,1026.50
2019-03-20T01:02:56.379Z,1026.48
2019-03-20T01:03:56.390Z,1026.45
2019-03-20T01:04:56.395Z,1026.50
2019-03-20T01:05:56.399Z,1026.50
2019-03-20T01:06:56.403Z,1026.50
2019-03-20T01:07:56.399Z,1026.48
2019-03-20T01:08:56.407Z,1026.44
2019-03-20T01:09:56.403Z,1026.45
2019-03-20T01:10:56.415Z,1026.45
2019-03-20T01:11:56.421Z,1026.42
2019-03-20T01:12:56.417Z,1026.39
2019-03-20T01:13:56.423Z,1026.38
2019-03-20T01:14:56.427Z,1026.40
2019-03-20T01:15:56.432Z,1026.40
2019-03-20T01:16:56.438Z,1026.38
2019-03-20T01:17:56.435Z,1026.39
2019-03-20T01:18:56.443Z,1026.44
2019-03-20T01:19:56.450Z,1026.41
2019-03-20T01:20:56.451Z,1026.42
2019-03-20T01:21:56.455Z,1026.44
2019-03-20T01:22:56.458Z,1026.43
2019-03-20T01:23:56.463Z,1026.47
2019-03-20T01:24:56.461Z,1026.47
2019-03-20T01:25:56.468Z,1026.44
2019-03-20T01:26:56.471Z,1026.49
2019-03-20T01:27:56.478Z,1026.50
2019-03-20T01:28:56.487Z,1026.47
2019-03-20T01:29:56.482Z,1026.53
2019-03-20T01:30:56.506Z,1026.51
2019-03-20T01:31:56.491Z,1026.48
2019-03-20T01:32:56.499Z,1026.50
2019-03-20T01:33:56.498Z,1026.50
2019-03-20T01:34:56.498Z,1026.46
2019-03-20T01:35:56.508Z,1026.43
2019-03-20T01:36:56.509Z,1026.41
2019-03-20T01:37:56.510Z,1026.42
2019-03-20T01:38:56.525Z,1026.43
2019-03-20T01:39:56.579Z,1026.43
2019-03-20T01:40:56.530Z,1026.42
2019-03-20T01:41:56.522Z,1026.44
2019-03-20T01:42:56.590Z,1026.39
2019-03-20T01:43:56.535Z,1026.42
2019-03-20T01:44:56.566Z,1026.47
2019-03-20T01:45:56.567Z,1026.45
2019-03-20T01:46:56.546Z,1026.48
2019-03-20T01:47:56.666Z,1026.43
2019-03-20T01:48:56.557Z,1026.46
2019-03-20T01:49:57.489Z,1026.41
2019-03-20T01:50:56.562Z,1026.41
2019-03-20T01:51:56.574Z,1026.38
2019-03-20T01:52:56.573Z,1026.32
2019-03-20T01:53:56.581Z,1026.34
2019-03-20T01:54:56.586Z,1026.34
2019-03-20T01:55:56.597Z,1026.39
2019-03-20T01:56:56.578Z,1026.34
2019-03-20T01:57:56.655Z,1026.36
2019-03-20T01:58:56.594Z,1026.39
2019-03-20T01:59:56.742Z,1026.36
2019-03-20T02:00:56.603Z,1026.37
2019-03-20T02:01:56.605Z,1026.40
2019-03-20T02:02:56.607Z,1026.41
2019-03-20T02:03:56.627Z,1026.44
2019-03-20T02:04:56.617Z,1026.41
2019-03-20T02:05:56.658Z,1026.47
2019-03-20T02:06:56.628Z,1026.49
2019-03-20T02:07:56.630Z,1026.47
2019-03-20T02:08:56.630Z,1026.45
2019-03-20T02:09:57.501Z,1026.46
2019-03-20T02:10:56.642Z,1026.43
2019-03-20T02:11:56.644Z,1026.40
2019-03-20T02:12:58.547Z,1026.38
2019-03-20T02:13:56.657Z,1026.43
2019-03-20T02:14:56.649Z,1026.44
2019-03-20T02:15:56.760Z,1026.48
2019-03-20T02:16:56.655Z,1026.45
2019-03-20T02:17:56.682Z,1026.47
2019-03-20T02:18:56.682Z,1026.40
2019-03-20T02:19:56.674Z,1026.44
2019-03-20T02:20:56.674Z,1026.46
2019-03-20T02:21:56.685Z,1026.47
2019-03-20T02:22:56.679Z,1026.51
2019-03-20T02:23:56.757Z,1026.51
2019-03-20T02:24:56.737Z,1026.54
2019-03-20T02:25:56.713Z,1026.53
2019-03-20T02:26:56.699Z,1026.55
2019-03-20T02:27:56.691Z,1026.50
2019-03-20T02:28:56.703Z,1026.45
2019-03-20T02:29:56.719Z,1026.46
2019-03-20T02:30:56.715Z,1026.44
2019-03-20T02:31:56.718Z,1026.41
2019-03-20T02:32:56.721Z,1026.44
2019-03-20T02:33:56.734Z,1026.44
2019-03-20T02:34:56.728Z,1026.45
2019-03-20T02:35:56.738Z,1026.52
2019-03-20T02:36:56.734Z,1026.53
2019-03-20T02:37:56.753Z,1026.55
2019-03-20T02:38:56.742Z,1026.55
2019-03-20T02:39:56.755Z,1026.55
2019-03-20T02:40:56.752Z,1026.52
2019-03-20T02:41:56.761Z,1026.49
2019-03-20T02:42:56.754Z,1026.52
2019-03-20T02:43:56.774Z,1026.52
2019-03-20T02:44:56.767Z,1026.51
2019-03-20T02:45:56.766Z,1026.55
2019-03-20T02:46:56.768Z,1026.55
2019-03-20T02:47:56.775Z,1026.59
2019-03-20T02:48:56.835Z,1026.57
2019-03-20T02:49:56.780Z,1026.58
2019-03-20T02:50:56.783Z,1026.56
2019-03-20T02:51:56.796Z,1026.56
2019-03-20T02:52:56.799Z,1026.53
2019-03-20T02:53:56.800Z,1026.55
2019-03-20T02:54:56.811Z,1026.56
2019-03-20T02:55:56.798Z,1026.59
2019-03-20T02:56:56.808Z,1026.63
2019-03-20T02:57:56.815Z,1026.57
2019-03-20T02:58:56.818Z,1026.56
2019-03-20T02:59:56.821Z,1026.57
2019-03-20T03:00:56.820Z,1026.57
2019-03-20T03:01:56.826Z,1026.53
2019-03-20T03:02:56.838Z,1026.55
2019-03-20T03:03:56.833Z,1026.53
2019-03-20T03:04:56.836Z,1026.53
2019-03-20T03:06:06.513Z,1026.55
2019-03-20T03:06:56.851Z,1026.54
2019-03-20T03:07:56.857Z,1026.50
2019-03-20T03:08:56.851Z,1026.49
2019-03-20T03:09:56.871Z,1026.45
2019-03-20T03:10:56.857Z,1026.43
2019-03-20T03:11:56.875Z,1026.45
2019-03-20T03:12:56.888Z,1026.45
2019-03-20T03:13:56.872Z,1026.44
2019-03-20T03:14:56.871Z,1026.45
2019-03-20T03:15:56.875Z,1026.45
2019-03-20T03:16:56.899Z,1026.40
2019-03-20T03:17:56.886Z,1026.42
2019-03-20T03:18:56.886Z,1026.43
2019-03-20T03:19:56.894Z,1026.40
2019-03-20T03:20:56.898Z,1026.41
2019-03-20T03:21:56.897Z,1026.44
2019-03-20T03:22:56.907Z,1026.44
2019-03-20T03:23:56.913Z,1026.46
2019-03-20T03:24:56.912Z,1026.51
2019-03-20T03:25:56.919Z,1026.52
2019-03-20T03:26:56.920Z,1026.49
2019-03-20T03:27:56.927Z,1026.45
2019-03-20T03:28:56.922Z,1026.50
2019-03-20T03:29:56.939Z,1026.45
2019-03-20T03:30:57.068Z,1026.49
2019-03-20T03:31:56.939Z,1026.49
2019-03-20T03:32:56.938Z,1026.48
2019-03-20T03:33:56.951Z,1026.50
2019-03-20T03:34:56.944Z,1026.42
2019-03-20T03:35:56.965Z,1026.45
2019-03-20T03:36:56.950Z,1026.39
2019-03-20T03:37:56.961Z,1026.37
2019-03-20T03:38:56.961Z,1026.32
2019-03-20T03:39:56.962Z,1026.35
2019-03-20T03:40:56.969Z,1026.37
2019-03-20T03:41:56.984Z,1026.41
2019-03-20T03:42:56.976Z,1026.44
2019-03-20T03:43:56.981Z,1026.45
2019-03-20T03:44:56.984Z,1026.48
2019-03-20T03:45:56.993Z,1026.47
2019-03-20T03:46:56.987Z,1026.52
2019-03-20T03:47:56.994Z,1026.54
2019-03-20T03:48:57.003Z,1026.52
2019-03-20T03:49:57.005Z,1026.53
2019-03-20T03:50:57.006Z,1026.58
2019-03-20T03:51:57.010Z,1026.60
2019-03-20T03:52:57.014Z,1026.60
2019-03-20T03:53:57.020Z,1026.60
2019-03-20T03:54:57.021Z,1026.65
2019-03-20T03:55:57.027Z,1026.64
2019-03-20T03:56:57.023Z,1026.65
2019-03-20T03:57:57.032Z,1026.65
2019-03-20T03:58:57.035Z,1026.66
2019-03-20T03:59:57.039Z,1026.67
2019-03-20T04:00:57.044Z,1026.71
2019-03-20T04:01:57.051Z,1026.69
2019-03-20T04:02:57.080Z,1026.77
2019-03-20T04:03:57.057Z,1026.77
2019-03-20T04:04:57.064Z,1026.76
2019-03-20T04:05:57.060Z,1026.83
2019-03-20T04:06:57.064Z,1026.81
2019-03-20T04:07:57.065Z,1026.80
2019-03-20T04:08:57.069Z,1026.84
2019-03-20T04:09:57.068Z,1026.84
2019-03-20T04:10:57.076Z,1026.79
2019-03-20T04:11:57.081Z,1026.80
2019-03-20T04:12:57.092Z,1026.80
2019-03-20T04:13:57.089Z,1026.82
2019-03-20T04:14:57.090Z,1026.80
2019-03-20T04:15:57.092Z,1026.82
2019-03-20T04:16:57.127Z,1026.79
2019-03-20T04:17:57.095Z,1026.79
2019-03-20T04:18:57.111Z,1026.80
2019-03-20T04:19:57.110Z,1026.76
2019-03-20T04:20:57.117Z,1026.76
2019-03-20T04:21:57.124Z,1026.76
2019-03-20T04:22:57.121Z,1026.76
2019-03-20T04:23:57.132Z,1026.79
2019-03-20T04:24:57.128Z,1026.79
2019-03-20T04:25:57.130Z,1026.80
2019-03-20T04:26:57.133Z,1026.79
2019-03-20T04:27:57.142Z,1026.81
2019-03-20T04:28:57.144Z,1026.76
2019-03-20T04:29:57.151Z,1026.74
2019-03-20T04:30:57.158Z,1026.79
2019-03-20T04:31:57.157Z,1026.78
2019-03-20T04:32:57.160Z,1026.78
2019-03-20T04:33:57.805Z,1026.78
2019-03-20T04:34:57.170Z,1026.81
2019-03-20T04:35:57.171Z,1026.81
2019-03-20T04:36:57.175Z,1026.83
2019-03-20T04:37:57.177Z,1026.83
2019-03-20T04:38:57.185Z,1026.87
2019-03-20T04:39:57.187Z,1026.87
2019-03-20T04:40:57.182Z,1026.88
2019-03-20T04:41:57.199Z,1026.88
2019-03-20T04:42:57.193Z,1026.89
2019-03-20T04:43:57.197Z,1026.91
2019-03-20T04:44:57.202Z,1026.89
2019-03-20T04:45:57.205Z,1026.92
2019-03-20T04:46:57.216Z,1026.91
2019-03-20T04:47:57.214Z,1026.90
2019-03-20T04:48:57.212Z,1026.91
2019-03-20T04:49:57.214Z,1026.92
2019-03-20T04:50:57.230Z,1026.91
2019-03-20T04:51:57.225Z,1026.93
2019-03-20T04:52:57.237Z,1026.95
2019-03-20T04:53:57.228Z,1026.94
2019-03-20T04:54:57.239Z,1026.98
2019-03-20T04:55:57.235Z,1026.97
2019-03-20T04:56:57.243Z,1026.97
2019-03-20T04:57:57.250Z,1026.98
2019-03-20T04:58:57.254Z,1027.02
2019-03-20T04:59:57.263Z,1026.99
2019-03-20T05:00:57.256Z,1026.99
2019-03-20T05:01:57.258Z,1026.99
2019-03-20T05:02:57.268Z,1026.98
2019-03-20T05:03:57.283Z,1026.93
2019-03-20T05:04:57.268Z,1026.93
2019-03-20T05:05:57.282Z,1026.92
2019-03-20T05:06:59.120Z,1026.90
2019-03-20T05:07:57.285Z,1026.89
2019-03-20T05:08:57.291Z,1026.93
2019-03-20T05:09:57.288Z,1026.93
2019-03-20T05:10:57.299Z,1026.96
2019-03-20T05:11:57.298Z,1026.95
2019-03-20T05:12:57.300Z,1026.98
2019-03-20T05:13:57.306Z,1026.95
2019-03-20T05:14:57.308Z,1026.92
2019-03-20T05:15:57.308Z,1026.91
2019-03-20T05:16:57.328Z,1026.90
2019-03-20T05:17:57.319Z,1026.89
2019-03-20T05:18:57.324Z,1026.89
2019-03-20T05:19:57.327Z,1026.91
2019-03-20T05:20:57.328Z,1026.89
2019-03-20T05:21:57.324Z,1026.91
2019-03-20T05:22:57.338Z,1026.92
2019-03-20T05:23:57.347Z,1026.91
2019-03-20T05:24:57.344Z,1026.93
2019-03-20T05:25:57.338Z,1026.95
2019-03-20T05:26:57.356Z,1026.95
2019-03-20T05:27:57.354Z,1026.97
2019-03-20T05:28:57.365Z,1026.97
2019-03-20T05:29:57.366Z,1026.94
2019-03-20T05:30:57.362Z,1026.94
2019-03-20T05:31:57.372Z,1026.99
2019-03-20T05:32:57.377Z,1027.01
2019-03-20T05:33:57.375Z,1027.00
2019-03-20T05:34:57.381Z,1027.02
2019-03-20T05:35:57.380Z,1027.04
2019-03-20T05:36:57.389Z,1027.03
2019-03-20T05:37:57.392Z,1027.08
2019-03-20T05:38:57.398Z,1027.07
2019-03-20T05:39:57.400Z,1027.06
2019-03-20T05:40:57.400Z,1027.07
2019-03-20T05:41:57.406Z,1027.07
2019-03-20T05:42:57.407Z,1027.08
2019-03-20T05:43:57.412Z,1027.10
2019-03-20T05:44:57.418Z,1027.12
2019-03-20T05:45:57.418Z,1027.13
2019-03-20T05:46:57.422Z,1027.13
2019-03-20T05:47:57.428Z,1027.13
2019-03-20T05:48:57.424Z,1027.17
2019-03-20T05:49:57.437Z,1027.17
2019-03-20T05:50:57.440Z,1027.19
2019-03-20T05:51:57.442Z,1027.18
2019-03-20T05:52:57.444Z,1027.18
2019-03-20T05:53:57.445Z,1027.19
2019-03-20T05:54:57.456Z,1027.21
2019-03-20T05:55:57.457Z,1027.26
2019-03-20T05:56:57.456Z,1027.32
2019-03-20T05:57:57.463Z,1027.33
2019-03-20T05:58:57.470Z,1027.35
2019-03-20T05:59:57.474Z,1027.33
2019-03-20T06:00:57.473Z,1027.31
2019-03-20T06:01:57.475Z,1027.24
2019-03-20T06:02:57.517Z,1027.26
2019-03-20T06:03:57.485Z,1027.22
2019-03-20T06:04:57.487Z,1027.20
2019-03-20T06:05:57.495Z,1027.22
2019-03-20T06:06:57.497Z,1027.23
2019-03-20T06:07:57.501Z,1027.20
2019-03-20T06:08:57.507Z,1027.22
2019-03-20T06:09:57.505Z,1027.23
2019-03-20T06:10:57.505Z,1027.25
2019-03-20T06:11:57.511Z,1027.23
2019-03-20T06:12:57.517Z,1027.27
2019-03-20T06:13:57.524Z,1027.29
2019-03-20T06:14:57.525Z,1027.26
2019-03-20T06:15:57.535Z,1027.25
2019-03-20T06:16:57.543Z,1027.28
2019-03-20T06:17:57.533Z,1027.29
2019-03-20T06:18:57.543Z,1027.32
2019-03-20T06:19:57.541Z,1027.31
2019-03-20T06:20:57.549Z,1027.35
2019-03-20T06:21:57.555Z,1027.37
2019-03-20T06:22:57.553Z,1027.38
2019-03-20T06:23:57.561Z,1027.43
2019-03-20T06:24:57.557Z,1027.40
2019-03-20T06:25:57.572Z,1027.37
2019-03-20T06:26:57.568Z,1027.40
2019-03-20T06:27:57.570Z,1027.39
2019-03-20T06:28:57.578Z,1027.38
2019-03-20T06:29:57.578Z,1027.40
2019-03-20T06:30:57.592Z,1027.38
2019-03-20T06:31:57.594Z,1027.47
2019-03-20T06:32:59.770Z,1027.45
2019-03-20T06:33:57.589Z,1027.46
2019-03-20T06:34:57.600Z,1027.47
2019-03-20T06:35:57.609Z,1027.52
2019-03-20T06:36:57.606Z,1027.48
2019-03-20T06:37:57.616Z,1027.51
2019-03-20T06:38:57.616Z,1027.55
2019-03-20T06:39:57.616Z,1027.53
2019-03-20T06:40:57.627Z,1027.56
2019-03-20T06:41:57.621Z,1027.60
2019-03-20T06:42:57.628Z,1027.62
2019-03-20T06:43:57.629Z,1027.61
2019-03-20T06:44:57.637Z,1027.65
2019-03-20T06:45:57.652Z,1027.62
2019-03-20T06:46:57.652Z,1027.61
2019-03-20T06:47:57.639Z,1027.63
2019-03-20T06:48:57.650Z,1027.68
2019-03-20T06:49:57.652Z,1027.67
2019-03-20T06:50:57.649Z,1027.70
2019-03-20T06:51:57.658Z,1027.74
2019-03-20T06:52:57.667Z,1027.76
2019-03-20T06:53:57.662Z,1027.72
2019-03-20T06:54:57.668Z,1027.73
2019-03-20T06:55:57.670Z,1027.71
2019-03-20T06:56:57.677Z,1027.72
2019-03-20T06:57:57.684Z,1027.75
2019-03-20T06:58:57.681Z,1027.74
2019-03-20T06:59:57.690Z,1027.69
2019-03-20T07:00:57.693Z,1027.73
2019-03-20T07:01:57.700Z,1027.71
2019-03-20T07:02:57.725Z,1027.70
2019-03-20T07:03:57.703Z,1027.76
2019-03-20T07:04:57.705Z,1027.72
2019-03-20T07:05:57.714Z,1027.71
2019-03-20T07:06:57.729Z,1027.76
2019-03-20T07:07:57.714Z,1027.74
2019-03-20T07:08:57.735Z,1027.76
2019-03-20T07:09:57.742Z,1027.74
2019-03-20T07:10:57.732Z,1027.79
2019-03-20T07:11:57.737Z,1027.80
2019-03-20T07:12:57.735Z,1027.79
2019-03-20T07:13:57.743Z,1027.81
2019-03-20T07:14:57.747Z,1027.80
2019-03-20T07:15:57.751Z,1027.80
2019-03-20T07:16:57.758Z,1027.82
2019-03-20T07:17:57.756Z,1027.77
2019-03-20T07:18:57.759Z,1027.79
2019-03-20T07:19:57.765Z,1027.78
2019-03-20T07:20:57.767Z,1027.81
2019-03-20T07:21:57.769Z,1027.75
2019-03-20T07:22:57.780Z,1027.77
2019-03-20T07:23:57.777Z,1027.78
2019-03-20T07:24:57.811Z,1027.82
2019-03-20T07:25:57.781Z,1027.86
2019-03-20T07:26:57.785Z,1027.83
2019-03-20T07:27:57.792Z,1027.89
2019-03-20T07:28:57.797Z,1027.88
2019-03-20T07:29:57.801Z,1027.91
2019-03-20T07:30:57.802Z,1027.93
2019-03-20T07:31:57.805Z,1027.91
2019-03-20T07:32:57.810Z,1027.90
2019-03-20T07:33:57.813Z,1027.91
2019-03-20T07:34:57.813Z,1027.92
2019-03-20T07:35:57.825Z,1027.94
2019-03-20T07:36:57.823Z,1027.94
2019-03-20T07:37:57.825Z,1027.94
2019-03-20T07:38:57.844Z,1028.01
2019-03-20T07:39:57.831Z,1028.01
2019-03-20T07:40:57.841Z,1028.01
2019-03-20T07:41:57.838Z,1027.99
2019-03-20T07:43:08.176Z,1027.96
2019-03-20T07:43:57.850Z,1027.98
2019-03-20T07:44:57.857Z,1027.97
2019-03-20T07:45:57.862Z,1027.97
2019-03-20T07:46:57.861Z,1027.97
2019-03-20T07:47:57.871Z,1027.96
2019-03-20T07:48:57.865Z,1027.96
2019-03-20T07:49:57.877Z,1027.97
2019-03-20T07:50:57.872Z,1028.01
2019-03-20T07:51:57.883Z,1027.99
2019-03-20T07:52:57.885Z,1028.05
2019-03-20T07:53:57.888Z,1028.05
2019-03-20T07:54:57.891Z,1028.06
2019-03-20T07:55:57.897Z,1028.04
2019-03-20T07:56:57.897Z,1028.08
2019-03-20T07:57:57.898Z,1028.05
2019-03-20T07:58:57.908Z,1028.09
2019-03-20T07:59:57.907Z,1028.11
2019-03-20T08:00:57.920Z,1028.13
2019-03-20T08:01:57.914Z,1028.09
2019-03-20T08:02:57.917Z,1028.08
2019-03-20T08:03:57.919Z,1028.11
2019-03-20T08:04:57.929Z,1028.12
2019-03-20T08:05:57.933Z,1028.12
2019-03-20T08:06:57.933Z,1028.15
2019-03-20T08:08:06.648Z,1028.10
2019-03-20T08:08:57.937Z,1028.10
2019-03-20T08:09:57.962Z,1028.07
2019-03-20T08:10:57.951Z,1028.06
2019-03-20T08:11:57.955Z,1028.09
2019-03-20T08:12:57.962Z,1028.08
2019-03-20T08:13:57.961Z,1028.10
2019-03-20T08:14:57.965Z,1028.13
2019-03-20T08:15:57.965Z,1028.12
2019-03-20T08:16:57.971Z,1028.14
2019-03-20T08:17:57.979Z,1028.15
2019-03-20T08:18:57.983Z,1028.13
2019-03-20T08:19:57.979Z,1028.16
2019-03-20T08:20:57.983Z,1028.15
2019-03-20T08:21:57.993Z,1028.15
2019-03-20T08:22:57.995Z,1028.20
2019-03-20T08:23:57.993Z,1028.17
2019-03-20T08:24:57.999Z,1028.16
2019-03-20T08:25:58.000Z,1028.16
2019-03-20T08:26:58.005Z,1028.19
2019-03-20T08:27:58.015Z,1028.18
2019-03-20T08:28:58.017Z,1028.24
2019-03-20T08:29:58.020Z,1028.24
2019-03-20T08:30:58.022Z,1028.22
2019-03-20T08:31:58.027Z,1028.26
2019-03-20T08:32:58.025Z,1028.27
2019-03-20T08:33:58.029Z,1028.26
2019-03-20T08:34:58.035Z,1028.24
2019-03-20T08:35:58.041Z,1028.26
2019-03-20T08:36:58.041Z,1028.23
2019-03-20T08:37:58.051Z,1028.28
2019-03-20T08:38:58.056Z,1028.27
2019-03-20T08:39:58.061Z,1028.26
2019-03-20T08:40:58.062Z,1028.28
2019-03-20T08:41:58.065Z,1028.29
2019-03-20T08:42:58.069Z,1028.29
2019-03-20T08:43:58.067Z,1028.28
2019-03-20T08:44:58.072Z,1028.27
2019-03-20T08:45:58.077Z,1028.29
2019-03-20T08:46:58.075Z,1028.29
2019-03-20T08:47:58.084Z,1028.30
2019-03-20T08:48:58.079Z,1028.38
2019-03-20T08:49:58.100Z,1028.40
2019-03-20T08:50:58.092Z,1028.38
2019-03-20T08:51:58.095Z,1028.37
2019-03-20T08:52:58.100Z,1028.37
2019-03-20T08:53:58.109Z,1028.39
2019-03-20T08:54:58.107Z,1028.38
2019-03-20T08:55:58.117Z,1028.35
2019-03-20T08:56:58.116Z,1028.36
2019-03-20T08:57:58.122Z,1028.40
2019-03-20T08:58:58.123Z,1028.38
2019-03-20T08:59:58.124Z,1028.40
2019-03-20T09:00:58.131Z,1028.47
2019-03-20T09:01:58.137Z,1028.48
2019-03-20T09:02:58.137Z,1028.52
2019-03-20T09:03:58.139Z,1028.53
2019-03-20T09:04:58.148Z,1028.58
2019-03-20T09:05:58.149Z,1028.54
2019-03-20T09:06:58.155Z,1028.53
2019-03-20T09:07:58.160Z,1028.53
2019-03-20T09:08:58.159Z,1028.54
2019-03-20T09:09:58.178Z,1028.53
2019-03-20T09:10:58.163Z,1028.55
2019-03-20T09:11:58.169Z,1028.51
2019-03-20T09:12:58.175Z,1028.54
2019-03-20T09:13:58.167Z,1028.53
2019-03-20T09:14:58.183Z,1028.54
2019-03-20T09:15:58.193Z,1028.53
2019-03-20T09:16:58.197Z,1028.52
2019-03-20T09:17:58.193Z,1028.52
2019-03-20T09:18:58.201Z,1028.54
2019-03-20T09:19:58.201Z,1028.56
2019-03-20T09:20:58.211Z,1028.55
2019-03-20T09:21:58.209Z,1028.56
2019-03-20T09:22:58.212Z,1028.56
2019-03-20T09:23:58.236Z,1028.58
2019-03-20T09:24:58.217Z,1028.59
2019-03-20T09:25:58.234Z,1028.57
2019-03-20T09:26:58.228Z,1028.59
2019-03-20T09:27:58.249Z,1028.57
2019-03-20T09:28:58.233Z,1028.59
2019-03-20T09:29:58.237Z,1028.62
2019-03-20T09:30:58.240Z,1028.59
2019-03-20T09:31:58.244Z,1028.61
2019-03-20T09:32:58.245Z,1028.60
2019-03-20T09:33:58.301Z,1028.58
2019-03-20T09:34:58.257Z,1028.60
2019-03-20T09:35:58.265Z,1028.60
2019-03-20T09:36:58.265Z,1028.60
2019-03-20T09:37:58.291Z,1028.61
2019-03-20T09:38:58.276Z,1028.59
2019-03-20T09:39:58.272Z,1028.58
2019-03-20T09:40:58.277Z,1028.62
2019-03-20T09:41:58.293Z,1028.61
2019-03-20T09:42:58.277Z,1028.63
2019-03-20T09:43:58.290Z,1028.65
2019-03-20T09:44:58.287Z,1028.63
2019-03-20T09:45:58.297Z,1028.62
2019-03-20T09:46:58.291Z,1028.64
2019-03-20T09:47:58.309Z,1028.62
2019-03-20T09:48:58.297Z,1028.61
2019-03-20T09:49:58.315Z,1028.58
2019-03-20T09:50:59.160Z,1028.63
2019-03-20T09:51:58.317Z,1028.59
2019-03-20T09:52:58.323Z,1028.61
2019-03-20T09:53:58.323Z,1028.57
2019-03-20T09:54:58.329Z,1028.49
2019-03-20T09:55:58.333Z,1028.52
2019-03-20T09:56:58.342Z,1028.55
2019-03-20T09:57:58.342Z,1028.59
2019-03-20T09:58:58.355Z,1028.57
2019-03-20T09:59:58.350Z,1028.60
2019-03-20T10:00:58.369Z,1028.58
2019-03-20T10:01:58.351Z,1028.61
2019-03-20T10:02:59.165Z,1028.61
2019-03-20T10:03:58.361Z,1028.62
2019-03-20T10:04:58.373Z,1028.59
2019-03-20T10:05:58.369Z,1028.61
2019-03-20T10:06:58.380Z,1028.62
2019-03-20T10:07:58.377Z,1028.62
2019-03-20T10:08:58.392Z,1028.58
2019-03-20T10:09:58.396Z,1028.59
2019-03-20T10:10:58.435Z,1028.57
2019-03-20T10:11:58.393Z,1028.54
2019-03-20T10:12:59.164Z,1028.51
2019-03-20T10:13:58.395Z,1028.48
2019-03-20T10:14:58.463Z,1028.50
2019-03-20T10:15:58.405Z,1028.47
2019-03-20T10:16:58.492Z,1028.45
2019-03-20T10:17:58.415Z,1028.42
2019-03-20T10:18:58.491Z,1028.45
2019-03-20T10:19:58.423Z,1028.42
2019-03-20T10:20:59.167Z,1028.42
2019-03-20T10:21:58.431Z,1028.45
2019-03-20T10:22:58.453Z,1028.44
2019-03-20T10:23:58.435Z,1028.44
2019-03-20T10:24:58.467Z,1028.45
2019-03-20T10:25:58.443Z,1028.46
2019-03-20T10:26:58.464Z,1028.49
2019-03-20T10:27:58.451Z,1028.46
2019-03-20T10:28:58.531Z,1028.47
2019-03-20T10:29:58.463Z,1028.46
2019-03-20T10:30:58.469Z,1028.48
2019-03-20T10:31:58.467Z,1028.47
2019-03-20T10:32:58.467Z,1028.49
2019-03-20T10:33:58.472Z,1028.48
2019-03-20T10:34:58.483Z,1028.46
2019-03-20T10:35:58.483Z,1028.46
2019-03-20T10:36:58.523Z,1028.47
2019-03-20T10:37:58.540Z,1028.47
2019-03-20T10:39:06.407Z,1028.46
2019-03-20T10:39:58.491Z,1028.46
2019-03-20T10:40:58.544Z,1028.44
2019-03-20T10:41:58.510Z,1028.48
2019-03-20T10:42:58.509Z,1028.43
2019-03-20T10:43:58.513Z,1028.44
2019-03-20T10:44:58.530Z,1028.44
2019-03-20T10:45:58.521Z,1028.46
2019-03-20T10:46:58.535Z,1028.45
2019-03-20T10:47:58.530Z,1028.45
2019-03-20T10:48:58.541Z,1028.45
2019-03-20T10:49:58.535Z,1028.45
2019-03-20T10:50:58.555Z,1028.42
2019-03-20T10:51:58.547Z,1028.45
2019-03-20T10:52:58.556Z,1028.42
2019-03-20T10:53:58.548Z,1028.46
2019-03-20T10:54:58.557Z,1028.44
2019-03-20T10:55:58.560Z,1028.43
2019-03-20T10:56:58.568Z,1028.42
2019-03-20T10:57:58.563Z,1028.41
2019-03-20T10:58:58.567Z,1028.44
2019-03-20T10:59:58.568Z,1028.44
2019-03-20T11:00:58.584Z,1028.45
2019-03-20T11:02:00.776Z,1028.45
2019-03-20T11:02:58.580Z,1028.42
2019-03-20T11:03:58.599Z,1028.42
2019-03-20T11:04:58.596Z,1028.43
2019-03-20T11:05:58.599Z,1028.46
2019-03-20T11:06:58.598Z,1028.44
2019-03-20T11:07:58.603Z,1028.48
2019-03-20T11:08:58.604Z,1028.45
2019-03-20T11:09:58.607Z,1028.45
2019-03-20T11:10:58.656Z,1028.46
2019-03-20T11:11:58.611Z,1028.49
2019-03-20T11:12:58.620Z,1028.45
2019-03-20T11:13:58.625Z,1028.48
2019-03-20T11:14:58.625Z,1028.45
2019-03-20T11:15:58.639Z,1028.39
2019-03-20T11:16:58.634Z,1028.43
2019-03-20T11:17:58.642Z,1028.44
2019-03-20T11:18:58.640Z,1028.41
2019-03-20T11:19:58.649Z,1028.39
2019-03-20T11:20:58.658Z,1028.40
2019-03-20T11:21:58.653Z,1028.39
2019-03-20T11:22:58.666Z,1028.37
2019-03-20T11:23:58.664Z,1028.40
2019-03-20T11:24:58.663Z,1028.39
2019-03-20T11:26:00.032Z,1028.36
2019-03-20T11:26:58.679Z,1028.34
2019-03-20T11:27:58.673Z,1028.34
2019-03-20T11:28:58.687Z,1028.30
2019-03-20T11:29:58.687Z,1028.32
2019-03-20T11:30:58.690Z,1028.32
2019-03-20T11:31:58.689Z,1028.31
2019-03-20T11:32:58.687Z,1028.29
2019-03-20T11:33:58.708Z,1028.32
2019-03-20T11:34:58.701Z,1028.28
2019-03-20T11:35:58.709Z,1028.27
2019-03-20T11:36:58.713Z,1028.24
2019-03-20T11:37:58.715Z,1028.26
2019-03-20T11:38:58.718Z,1028.29
2019-03-20T11:39:58.726Z,1028.25
2019-03-20T11:40:58.735Z,1028.29
2019-03-20T11:41:58.735Z,1028.28
2019-03-20T11:42:58.731Z,1028.28
2019-03-20T11:43:58.737Z,1028.31
2019-03-20T11:44:58.743Z,1028.30
2019-03-20T11:45:58.752Z,1028.30
2019-03-20T11:46:58.750Z,1028.30
2019-03-20T11:47:58.759Z,1028.34
2019-03-20T11:48:58.775Z,1028.34
2019-03-20T11:49:58.759Z,1028.31
2019-03-20T11:50:58.771Z,1028.34
2019-03-20T11:51:58.767Z,1028.34
2019-03-20T11:52:58.821Z,1028.40
2019-03-20T11:53:58.791Z,1028.35
2019-03-20T11:54:58.781Z,1028.32
2019-03-20T11:55:58.787Z,1028.33
2019-03-20T11:56:58.789Z,1028.30
2019-03-20T11:57:58.811Z,1028.27
2019-03-20T11:58:58.799Z,1028.28
2019-03-20T11:59:58.801Z,1028.27
2019-03-20T12:00:58.799Z,1028.25
2019-03-20T12:01:58.815Z,1028.25
2019-03-20T12:02:58.812Z,1028.25
2019-03-20T12:03:58.806Z,1028.29
2019-03-20T12:04:58.820Z,1028.27
2019-03-20T12:05:58.821Z,1028.29